createdAt,value
2023-02-18T00:00:16.678Z,85.10
2023-02-18T00:02:43.950Z,86.10
2023-02-18T00:05:10.634Z,87.60
2023-02-18T00:07:37.727Z,86.10
2023-02-18T00:10:05.396Z,86.50
2023-02-18T00:12:31.713Z,86.10
2023-02-18T00:14:58.178Z,85.20
2023-02-18T00:17:24.473Z,84.30
2023-02-18T00:19:58.382Z,82.00
2023-02-18T00:22:25.100Z,81.10
2023-02-18T00:24:51.437Z,78.20
2023-02-18T00:27:17.781Z,76.60
2023-02-18T00:29:44.003Z,74.60
2023-02-18T00:32:11.394Z,74.90
2023-02-18T00:34:37.890Z,74.10
2023-02-18T00:37:04.271Z,74.50
2023-02-18T00:39:30.434Z,75.10
2023-02-18T00:41:56.638Z,75.20
2023-02-18T00:44:23.192Z,74.80
2023-02-18T00:46:50.058Z,75.00
2023-02-18T00:49:16.351Z,74.80
2023-02-18T00:51:42.613Z,75.10
2023-02-18T00:54:09.148Z,75.90
2023-02-18T00:56:35.372Z,75.70
2023-02-18T00:59:01.515Z,74.30
2023-02-18T01:01:28.183Z,74.40
2023-02-18T01:03:54.602Z,74.50
2023-02-18T01:06:21.666Z,75.30
2023-02-18T01:08:48.019Z,75.90
2023-02-18T01:11:14.703Z,76.10
2023-02-18T01:13:41.387Z,76.60
2023-02-18T01:16:08.478Z,76.30
2023-02-18T01:18:35.682Z,76.10
2023-02-18T01:21:02.207Z,75.10
2023-02-18T01:23:28.384Z,73.70
2023-02-18T01:25:55.577Z,74.70
2023-02-18T01:28:24.633Z,74.60
2023-02-18T01:30:52.237Z,74.80
2023-02-18T01:33:19.224Z,76.80
2023-02-18T01:35:45.462Z,76.50
2023-02-18T01:38:11.589Z,77.00
2023-02-18T01:40:44.803Z,77.20
2023-02-18T01:43:12.348Z,75.20
2023-02-18T01:46:00.484Z,74.20
2023-02-18T01:51:50.166Z,74.00
2023-02-18T01:54:27.330Z,72.90
2023-02-18T01:57:40.171Z,73.60
2023-02-18T02:00:11.756Z,73.20
2023-02-18T02:02:40.491Z,73.50
2023-02-18T02:05:07.305Z,73.90
2023-02-18T02:07:33.458Z,73.30
2023-02-18T02:09:59.865Z,73.50
2023-02-18T02:13:08.427Z,73.30
2023-02-18T02:15:44.115Z,71.50
2023-02-18T02:18:49.117Z,71.50
2023-02-18T02:21:49.103Z,70.40
2023-02-18T02:24:41.574Z,69.20
2023-02-18T02:27:19.196Z,68.60
2023-02-18T02:30:09.299Z,68.80
2023-02-18T02:33:05.468Z,70.70
2023-02-18T02:35:43.921Z,68.60
2023-02-18T02:38:21.163Z,69.30
2023-02-18T02:41:18.336Z,68.60
2023-02-18T02:44:19.236Z,69.40
2023-02-18T02:46:47.563Z,69.50
2023-02-18T02:51:09.719Z,69.80
2023-02-18T02:53:36.852Z,72.40
2023-02-18T02:56:03.246Z,74.00
2023-02-18T02:58:29.612Z,75.00
2023-02-18T03:01:31.567Z,75.80
2023-02-18T03:04:52.690Z,76.30
2023-02-18T03:12:44.306Z,75.40
2023-02-18T03:15:56.345Z,74.90
2023-02-18T03:21:08.456Z,73.40
2023-02-18T03:23:41.349Z,73.40
2023-02-18T03:26:07.732Z,74.20
2023-02-18T03:28:34.422Z,74.10
2023-02-18T03:31:05.974Z,74.00
2023-02-18T03:33:37.031Z,73.30
2023-02-18T03:36:03.743Z,73.10
2023-02-18T03:38:59.064Z,72.90
2023-02-18T03:41:25.355Z,72.70
2023-02-18T03:43:52.565Z,72.30
2023-02-18T03:46:18.753Z,73.00
2023-02-18T03:48:44.996Z,72.60
2023-02-18T03:51:11.533Z,72.80
2023-02-18T03:53:37.687Z,72.60
2023-02-18T03:56:04.552Z,72.30
2023-02-18T03:58:30.818Z,72.10
2023-02-18T04:00:56.983Z,72.30
2023-02-18T04:03:23.198Z,72.30
2023-02-18T04:05:49.678Z,73.30
2023-02-18T04:08:16.647Z,72.40
2023-02-18T04:10:43.884Z,72.50
2023-02-18T04:13:10.638Z,71.70
2023-02-18T04:15:36.834Z,71.90
2023-02-18T04:18:03.292Z,73.20
2023-02-18T04:20:29.493Z,71.90
2023-02-18T04:22:55.674Z,72.30
2023-02-18T04:25:21.952Z,72.20
2023-02-18T04:27:48.437Z,72.70
2023-02-18T04:30:16.747Z,73.00
2023-02-18T04:32:44.133Z,73.00
2023-02-18T04:35:10.780Z,73.10
2023-02-18T04:37:36.947Z,73.20
2023-02-18T04:40:03.542Z,73.40
2023-02-18T04:42:30.796Z,73.00
2023-02-18T04:44:57.479Z,73.60
2023-02-18T04:47:24.490Z,73.70
2023-02-18T04:49:50.713Z,73.40
2023-02-18T04:52:17.223Z,73.80
2023-02-18T04:54:43.778Z,73.40
2023-02-18T04:57:09.943Z,73.20
2023-02-18T04:59:36.227Z,72.90
2023-02-18T05:02:02.439Z,73.30
2023-02-18T05:04:28.917Z,72.50
2023-02-18T05:06:55.068Z,72.70
2023-02-18T05:09:21.468Z,73.00
2023-02-18T05:11:48.156Z,73.40
2023-02-18T05:14:15.090Z,73.70
2023-02-18T05:16:41.397Z,73.60
2023-02-18T05:19:07.822Z,74.10
2023-02-18T05:21:33.986Z,74.60
2023-02-18T05:24:00.475Z,74.20
2023-02-18T05:26:26.721Z,74.40
2023-02-18T05:28:52.925Z,74.00
2023-02-18T05:31:19.214Z,73.90
2023-02-18T05:33:45.548Z,73.80
2023-02-18T05:36:11.705Z,73.70
2023-02-18T05:38:38.254Z,73.60
2023-02-18T05:41:05.512Z,73.10
2023-02-18T05:44:29.399Z,73.40
2023-02-18T05:46:59.883Z,72.40
2023-02-18T05:49:26.111Z,72.50
2023-02-18T05:51:52.255Z,72.00
2023-02-18T05:54:18.498Z,71.70
2023-02-18T05:56:45.554Z,71.30
2023-02-18T05:59:11.948Z,71.10
2023-02-18T06:01:38.345Z,70.50
2023-02-18T06:04:04.706Z,70.50
2023-02-18T06:06:31.153Z,70.10
2023-02-18T06:08:57.372Z,70.20
2023-02-18T06:11:23.552Z,70.00
2023-02-18T06:13:49.858Z,70.40
2023-02-18T06:16:16.039Z,70.30
2023-02-18T06:18:42.293Z,68.60
2023-02-18T06:21:08.859Z,66.50
2023-02-18T06:23:35.003Z,66.90
2023-02-18T06:26:01.201Z,67.40
2023-02-18T06:28:28.180Z,67.40
2023-02-18T06:30:54.779Z,68.10
2023-02-18T06:33:21.879Z,68.30
2023-02-18T06:35:58.830Z,68.60
2023-02-18T06:38:25.063Z,67.40
2023-02-18T06:40:51.322Z,67.50
2023-02-18T06:43:18.017Z,67.40
2023-02-18T06:45:44.292Z,67.80
2023-02-18T06:48:10.599Z,68.30
2023-02-18T06:50:37.052Z,67.40
2023-02-18T06:53:03.588Z,67.30
2023-02-18T06:55:30.220Z,67.20
2023-02-18T06:57:56.419Z,68.10
2023-02-18T07:00:23.298Z,67.60
2023-02-18T07:02:49.467Z,67.20
2023-02-18T07:05:15.972Z,66.80
2023-02-18T07:07:42.133Z,66.80
2023-02-18T07:10:09.108Z,67.20
2023-02-18T07:12:35.304Z,67.50
2023-02-18T07:15:01.780Z,67.70
2023-02-18T07:17:28.530Z,67.90
2023-02-18T07:19:55.584Z,67.90
2023-02-18T07:22:22.206Z,68.30
2023-02-18T07:24:53.473Z,68.20
2023-02-18T07:27:20.061Z,68.10
2023-02-18T07:29:47.447Z,68.30
2023-02-18T07:32:14.650Z,68.50
2023-02-18T07:34:41.634Z,68.40
2023-02-18T07:37:09.605Z,68.70
2023-02-18T07:39:38.817Z,68.60
2023-02-18T07:42:05.104Z,68.00
2023-02-18T07:44:31.476Z,67.60
2023-02-18T07:46:57.876Z,67.50
2023-02-18T07:49:24.330Z,67.60
2023-02-18T07:51:50.477Z,65.90
2023-02-18T07:54:18.017Z,66.60
2023-02-18T07:56:44.675Z,66.70
2023-02-18T07:59:12.417Z,65.70
2023-02-18T08:01:39.024Z,65.40
2023-02-18T08:04:05.328Z,66.20
2023-02-18T08:06:34.262Z,65.80
2023-02-18T08:09:01.205Z,66.00
2023-02-18T08:11:27.348Z,65.40
2023-02-18T08:13:54.182Z,65.10
2023-02-18T08:16:20.879Z,65.10
2023-02-18T08:18:47.866Z,65.80
2023-02-18T08:21:14.912Z,64.80
2023-02-18T08:23:41.079Z,65.10
2023-02-18T08:26:07.529Z,65.90
2023-02-18T08:28:34.855Z,65.10
2023-02-18T08:31:01.678Z,64.80
2023-02-18T08:33:30.063Z,65.10
2023-02-18T08:35:56.483Z,66.10
2023-02-18T08:38:23.936Z,65.30
2023-02-18T08:40:50.292Z,64.40
2023-02-18T08:43:17.047Z,65.00
2023-02-18T08:45:43.780Z,64.40
2023-02-18T08:48:18.028Z,64.20
2023-02-18T08:50:46.946Z,63.40
2023-02-18T08:53:13.193Z,64.60
2023-02-18T08:55:40.329Z,64.00
2023-02-18T08:58:07.467Z,64.30
2023-02-18T09:00:33.816Z,64.70
2023-02-18T09:03:00.034Z,64.60
2023-02-18T09:05:26.588Z,64.40
2023-02-18T09:07:52.794Z,65.00
2023-02-18T09:10:19.133Z,65.50
2023-02-18T09:12:47.300Z,64.00
2023-02-18T09:15:13.618Z,64.70
2023-02-18T09:17:39.769Z,64.70
2023-02-18T09:20:08.226Z,66.00
2023-02-18T09:22:34.775Z,65.30
2023-02-18T09:25:01.112Z,65.20
2023-02-18T09:27:27.360Z,65.30
2023-02-18T09:29:53.958Z,65.20
2023-02-18T09:32:33.657Z,66.50
2023-02-18T09:35:02.075Z,67.60
2023-02-18T09:37:28.797Z,67.10
2023-02-18T09:39:55.499Z,68.60
2023-02-18T09:42:24.155Z,70.30
2023-02-18T09:44:55.358Z,71.20
2023-02-18T09:47:32.877Z,71.70
2023-02-18T09:50:03.570Z,72.50
2023-02-18T09:52:35.734Z,73.10
2023-02-18T09:55:14.810Z,73.80
2023-02-18T09:57:47.052Z,73.50
2023-02-18T10:01:49.721Z,73.20
2023-02-18T10:04:29.894Z,73.10
2023-02-18T10:06:56.823Z,74.30
2023-02-18T10:09:45.839Z,74.20
2023-02-18T10:12:17.118Z,73.80
2023-02-18T10:14:47.891Z,74.50
2023-02-18T10:17:14.743Z,74.80
2023-02-18T10:19:40.958Z,74.70
2023-02-18T10:22:09.839Z,74.80
2023-02-18T10:25:01.167Z,75.20
2023-02-18T10:27:32.698Z,74.40
2023-02-18T10:30:23.289Z,75.40
2023-02-18T10:32:55.210Z,76.70
2023-02-18T10:35:34.322Z,76.90
2023-02-18T10:44:56.900Z,77.50
2023-02-18T10:47:52.925Z,78.20
2023-02-18T10:50:48.103Z,80.90
2023-02-18T10:53:37.329Z,82.10
2023-02-18T10:56:05.446Z,82.80
2023-02-18T10:58:47.735Z,83.10
2023-02-18T11:01:21.138Z,85.20
2023-02-18T11:03:52.128Z,85.30
2023-02-18T11:06:37.432Z,85.90
2023-02-18T11:09:04.303Z,85.30
2023-02-18T11:11:33.763Z,85.80
2023-02-18T11:14:04.198Z,86.40
2023-02-18T11:17:15.974Z,86.10
2023-02-18T11:19:43.206Z,85.80
2023-02-18T11:22:28.696Z,85.10
2023-02-18T11:24:57.419Z,85.90
2023-02-18T11:27:43.538Z,85.70
2023-02-18T11:30:54.328Z,84.70
2023-02-18T11:33:33.873Z,84.10
2023-02-18T11:36:38.188Z,84.00
2023-02-18T11:39:33.532Z,84.00
2023-02-18T11:42:05.678Z,84.30
2023-02-18T11:44:38.280Z,84.80
2023-02-18T11:47:33.847Z,86.00
2023-02-18T11:50:14.503Z,87.50
2023-02-18T11:52:44.137Z,85.70
2023-02-18T11:55:27.342Z,87.80
2023-02-18T11:58:01.700Z,88.60
2023-02-18T12:01:54.565Z,88.90
2023-02-18T12:05:15.887Z,90.00
2023-02-18T12:07:50.328Z,90.00
2023-02-18T12:10:32.247Z,90.30
2023-02-18T12:13:04.913Z,90.60
2023-02-18T12:15:51.320Z,91.10
2023-02-18T12:23:08.161Z,91.40
2023-02-18T12:25:57.945Z,91.90
2023-02-18T12:31:32.562Z,93.10
2023-02-18T12:34:26.097Z,93.20
2023-02-18T12:37:19.805Z,93.50
2023-02-18T12:43:11.800Z,95.00
2023-02-18T12:46:05.761Z,95.10
2023-02-18T12:50:22.845Z,96.80
2023-02-18T12:54:03.715Z,97.70
2023-02-18T12:57:18.895Z,98.10
2023-02-18T13:00:44.617Z,98.80
2023-02-18T13:03:46.866Z,99.00
2023-02-18T13:06:51.903Z,99.40
2023-02-18T13:14:03.146Z,99.50
2023-02-18T13:16:29.664Z,99.70
2023-02-18T13:19:25.955Z,99.90
2023-02-18T13:21:58.055Z,99.90
2023-02-18T13:24:37.215Z,99.90
2023-02-18T13:35:22.907Z,99.90
2023-02-18T13:38:26.452Z,99.90
2023-02-18T13:40:52.869Z,99.90
2023-02-18T13:43:41.354Z,99.90
2023-02-18T13:46:18.707Z,99.90
2023-02-18T13:52:19.255Z,99.90
2023-02-18T13:54:46.471Z,99.90
2023-02-18T13:57:20.133Z,99.90
2023-02-18T13:59:59.597Z,99.90
2023-02-18T14:02:31.472Z,99.90
2023-02-18T14:05:58.753Z,99.90
2023-02-18T14:08:36.375Z,99.90
2023-02-18T14:11:26.924Z,99.90
2023-02-18T14:17:11.656Z,99.90
2023-02-18T14:19:38.937Z,99.90
2023-02-18T14:22:27.669Z,99.90
2023-02-18T14:25:35.812Z,99.90
2023-02-18T14:28:48.636Z,99.90
2023-02-18T14:31:41.609Z,99.90
2023-02-18T14:36:08.095Z,99.90
2023-02-18T14:38:59.514Z,99.90
2023-02-18T14:47:02.491Z,99.90
2023-02-18T14:49:43.840Z,99.90
2023-02-18T14:52:35.309Z,99.90
2023-02-18T14:55:02.917Z,99.90
2023-02-18T14:57:44.922Z,99.90
2023-02-18T15:00:19.120Z,99.90
2023-02-18T15:02:52.104Z,99.90
2023-02-18T15:05:21.008Z,99.90
2023-02-18T15:08:03.816Z,99.90
2023-02-18T15:10:48.722Z,99.90
2023-02-18T15:13:32.050Z,99.90
2023-02-18T15:16:08.425Z,99.90
2023-02-18T15:18:38.216Z,99.90
2023-02-18T15:21:06.868Z,99.90
2023-02-18T15:23:38.436Z,99.90
2023-02-18T15:26:05.387Z,99.90
2023-02-18T15:28:32.588Z,99.90
2023-02-18T15:31:00.402Z,99.90
2023-02-18T15:33:27.813Z,99.90
2023-02-18T15:36:02.796Z,99.90
2023-02-18T15:38:29.445Z,99.90
2023-02-18T15:40:56.881Z,99.90
2023-02-18T15:43:25.988Z,99.90
2023-02-18T15:45:57.134Z,99.90
2023-02-18T15:48:52.286Z,99.90
2023-02-18T15:51:25.022Z,99.90
2023-02-18T15:53:53.700Z,99.90
2023-02-18T15:56:34.146Z,99.90
2023-02-18T16:00:04.365Z,99.90
2023-02-18T16:02:32.552Z,99.90
2023-02-18T16:05:00.163Z,99.90
2023-02-18T16:07:31.516Z,99.90
2023-02-18T16:10:23.275Z,99.90
2023-02-18T16:12:53.773Z,99.90
2023-02-18T16:15:30.918Z,99.70
2023-02-18T16:17:59.705Z,99.10
2023-02-18T16:20:30.477Z,99.30
2023-02-18T16:23:01.369Z,98.80
2023-02-18T16:25:44.158Z,98.80
2023-02-18T16:28:30.847Z,98.30
2023-02-18T16:30:57.974Z,98.30
2023-02-18T16:33:24.448Z,97.30
2023-02-18T16:35:51.494Z,97.20
2023-02-18T16:38:20.715Z,97.10
2023-02-18T16:40:47.440Z,96.60
2023-02-18T16:43:26.188Z,96.80
2023-02-18T16:46:01.125Z,97.20
2023-02-18T16:48:41.876Z,96.00
2023-02-18T16:51:26.152Z,95.80
2023-02-18T16:53:52.980Z,95.10
2023-02-18T16:56:23.564Z,94.80
2023-02-18T16:58:52.968Z,94.50
2023-02-18T17:01:39.985Z,94.30
2023-02-18T17:04:09.379Z,93.70
2023-02-18T17:06:37.298Z,93.30
2023-02-18T17:09:15.888Z,93.60
2023-02-18T17:11:43.634Z,94.00
2023-02-18T17:14:13.842Z,94.20
2023-02-18T17:16:40.566Z,94.10
2023-02-18T17:19:08.853Z,94.20
2023-02-18T17:21:35.200Z,94.00
2023-02-18T17:24:01.696Z,93.90
2023-02-18T17:26:29.287Z,93.20
2023-02-18T17:28:57.625Z,93.20
2023-02-18T17:31:29.136Z,92.80
2023-02-18T17:33:56.336Z,92.60
2023-02-18T17:36:24.331Z,92.50
2023-02-18T17:38:50.996Z,92.60
2023-02-18T17:41:18.016Z,92.40
2023-02-18T17:43:44.659Z,92.10
2023-02-18T17:46:17.926Z,92.40
2023-02-18T17:48:46.482Z,92.60
2023-02-18T17:51:25.005Z,92.20
2023-02-18T17:53:51.529Z,92.80
2023-02-18T17:56:19.144Z,92.40
2023-02-18T17:58:46.081Z,92.60
2023-02-18T18:01:13.151Z,92.90
2023-02-18T18:03:39.920Z,92.70
2023-02-18T18:06:14.439Z,92.90
2023-02-18T18:08:40.907Z,92.70
2023-02-18T18:11:11.146Z,92.70
2023-02-18T18:13:38.904Z,92.90
2023-02-18T18:16:06.368Z,92.60
2023-02-18T18:18:33.424Z,92.90
2023-02-18T18:21:00.075Z,93.30
2023-02-18T18:23:29.244Z,93.50
2023-02-18T18:25:57.357Z,93.40
2023-02-18T18:28:25.257Z,93.30
2023-02-18T18:30:53.207Z,93.50
2023-02-18T18:33:28.512Z,93.40
2023-02-18T18:35:56.357Z,93.40
2023-02-18T18:38:24.895Z,93.90
2023-02-18T18:40:52.011Z,93.70
2023-02-18T18:43:32.497Z,94.10
2023-02-18T18:46:01.151Z,94.70
2023-02-18T18:48:28.201Z,95.30
2023-02-18T18:50:58.287Z,95.90
2023-02-18T18:53:32.130Z,96.60
2023-02-18T18:56:05.950Z,97.80
2023-02-18T18:58:33.893Z,98.20
2023-02-18T19:01:02.821Z,98.90
2023-02-18T19:03:30.283Z,99.00
2023-02-18T19:05:57.790Z,97.90
2023-02-18T19:08:24.838Z,98.10
2023-02-18T19:10:59.748Z,98.90
2023-02-18T19:13:30.810Z,98.60
2023-02-18T19:16:21.890Z,98.80
2023-02-18T19:18:48.477Z,99.00
2023-02-18T19:21:16.542Z,99.00
2023-02-18T19:23:43.296Z,98.70
2023-02-18T19:26:10.545Z,98.70
2023-02-18T19:28:38.185Z,98.70
2023-02-18T19:31:09.376Z,98.90
2023-02-18T19:33:36.770Z,99.40
2023-02-18T19:36:08.236Z,99.00
2023-02-18T19:38:34.868Z,99.30
2023-02-18T19:41:09.239Z,99.60
2023-02-18T19:43:36.056Z,99.50
2023-02-18T19:46:09.392Z,99.90
2023-02-18T19:48:36.568Z,99.90
2023-02-18T19:51:05.285Z,99.90
2023-02-18T19:53:31.686Z,99.90
2023-02-18T19:56:01.279Z,99.90
2023-02-18T19:58:29.205Z,99.90
2023-02-18T20:00:56.724Z,99.90
2023-02-18T20:03:23.134Z,99.90
2023-02-18T20:05:49.749Z,99.90
2023-02-18T20:08:17.349Z,99.90
2023-02-18T20:10:43.880Z,99.90
2023-02-18T20:13:11.668Z,99.90
2023-02-18T20:15:43.665Z,99.90
2023-02-18T20:18:10.946Z,99.90
2023-02-18T20:20:38.772Z,99.90
2023-02-18T20:23:05.472Z,99.90
2023-02-18T20:25:33.064Z,99.90
2023-02-18T20:28:01.609Z,99.90
2023-02-18T20:30:28.685Z,99.90
2023-02-18T20:32:56.404Z,99.90
2023-02-18T20:35:24.284Z,99.90
2023-02-18T20:37:51.732Z,99.90
2023-02-18T20:40:19.722Z,99.90
2023-02-18T20:42:46.346Z,99.90
2023-02-18T20:45:17.758Z,99.90
2023-02-18T20:47:57.752Z,99.90
2023-02-18T20:50:25.397Z,99.90
2023-02-18T20:52:54.913Z,99.90
2023-02-18T20:55:26.353Z,99.90
2023-02-18T20:57:54.068Z,99.90
2023-02-18T21:00:22.492Z,99.90
2023-02-18T21:02:52.501Z,99.90
2023-02-18T21:05:25.409Z,99.90
2023-02-18T21:07:54.339Z,99.90
2023-02-18T21:10:22.355Z,99.90
2023-02-18T21:12:50.240Z,99.90
2023-02-18T21:15:17.398Z,99.90
2023-02-18T21:17:46.256Z,99.90
2023-02-18T21:20:15.154Z,99.80
2023-02-18T21:22:44.112Z,99.90
2023-02-18T21:25:14.683Z,99.90
2023-02-18T21:27:43.380Z,99.70
2023-02-18T21:30:13.920Z,99.90
2023-02-18T21:32:40.676Z,99.90
2023-02-18T21:35:08.821Z,99.90
2023-02-18T21:37:37.400Z,99.90
2023-02-18T21:40:05.166Z,99.90
2023-02-18T21:42:36.990Z,99.90
2023-02-18T21:45:06.572Z,99.90
2023-02-18T21:47:42.509Z,99.80
2023-02-18T21:50:13.050Z,99.80
2023-02-18T21:52:44.432Z,99.70
2023-02-18T21:55:11.617Z,99.60
2023-02-18T21:57:38.740Z,99.60
2023-02-18T22:00:19.546Z,99.90
2023-02-18T22:02:48.368Z,99.90
2023-02-18T22:05:16.032Z,99.40
2023-02-18T22:07:44.803Z,99.10
2023-02-18T22:10:13.625Z,99.60
2023-02-18T22:12:42.311Z,99.00
2023-02-18T22:15:09.271Z,99.20
2023-02-18T22:17:40.383Z,99.90
2023-02-18T22:20:11.454Z,99.90
2023-02-18T22:22:44.756Z,99.70
2023-02-18T22:25:13.288Z,99.50
2023-02-18T22:27:41.041Z,99.70
2023-02-18T22:30:09.653Z,99.30
2023-02-18T22:32:37.132Z,99.40
2023-02-18T22:35:04.447Z,99.60
2023-02-18T22:37:33.167Z,99.60
2023-02-18T22:40:00.115Z,99.60
2023-02-18T22:42:27.230Z,99.60
2023-02-18T22:44:56.750Z,99.40
2023-02-18T22:47:23.889Z,99.50
2023-02-18T22:49:51.052Z,99.40
2023-02-18T22:52:18.802Z,99.60
2023-02-18T22:54:45.870Z,99.90
2023-02-18T22:57:12.392Z,99.90
2023-02-18T22:59:38.997Z,99.90
2023-02-18T23:02:06.589Z,99.90
2023-02-18T23:04:33.253Z,99.80
2023-02-18T23:06:59.689Z,99.90
2023-02-18T23:09:27.653Z,99.90
2023-02-18T23:11:59.846Z,99.90
2023-02-18T23:14:27.935Z,99.90
2023-02-18T23:17:14.547Z,99.90
2023-02-18T23:19:49.422Z,99.90
2023-02-18T23:22:28.139Z,99.90
2023-02-18T23:24:55.870Z,99.90
2023-02-18T23:27:23.900Z,99.90
2023-02-18T23:29:50.661Z,99.90
2023-02-18T23:32:18.792Z,99.90
2023-02-18T23:34:45.358Z,99.90
2023-02-18T23:37:11.777Z,99.90
2023-02-18T23:39:40.302Z,99.90
2023-02-18T23:42:07.283Z,99.90
2023-02-18T23:44:34.817Z,99.90
2023-02-18T23:47:02.064Z,99.90
2023-02-18T23:49:28.539Z,99.90
2023-02-18T23:51:56.624Z,99.90
2023-02-18T23:54:24.118Z,99.90
2023-02-18T23:56:51.952Z,99.90
2023-02-18T23:59:18.609Z,99.90
